createdAt,value
2023-03-20T06:03:00.216Z,36.15
2023-03-20T06:05:30.369Z,33.95
2023-03-20T06:08:07.184Z,37.03
2023-03-20T06:10:37.182Z,35.03
2023-03-20T06:13:14.178Z,35.45
2023-03-20T06:15:44.279Z,35.63
2023-03-20T06:18:23.214Z,37.45
2023-03-20T06:20:56.358Z,40.15
2023-03-20T06:23:34.207Z,35.03
2023-03-20T06:26:11.164Z,36.58
2023-03-20T06:28:41.265Z,34.40
2023-03-20T06:31:18.309Z,33.75
2023-03-20T06:33:51.063Z,35.17
2023-03-20T06:36:28.213Z,32.50
2023-03-20T06:38:59.611Z,41.58
2023-03-20T06:41:36.243Z,33.38
2023-03-20T06:44:06.449Z,30.27
2023-03-20T06:46:43.262Z,30.83
2023-03-20T06:49:16.973Z,30.42
2023-03-20T06:51:54.198Z,34.10
2023-03-20T06:54:24.404Z,33.50
2023-03-20T06:57:01.290Z,31.98
2023-03-20T06:59:31.437Z,32.63
2023-03-20T07:02:08.317Z,33.85
2023-03-20T07:04:41.373Z,29.02
2023-03-20T07:07:18.291Z,34.67
2023-03-20T07:09:48.654Z,30.05
2023-03-20T07:12:27.263Z,32.17
2023-03-20T07:14:57.483Z,29.05
2023-03-20T07:17:37.241Z,32.53
2023-03-20T07:20:11.961Z,27.70
2023-03-20T07:22:49.253Z,34.38
2023-03-20T07:25:31.744Z,31.10
2023-03-20T07:28:12.306Z,29.05
2023-03-20T07:30:42.420Z,28.80
2023-03-20T07:33:19.396Z,32.60
2023-03-20T07:35:56.540Z,27.42
2023-03-20T07:38:33.345Z,30.67
2023-03-20T07:41:03.408Z,34.60
2023-03-20T07:43:40.270Z,33.22
2023-03-20T07:46:18.354Z,27.77
2023-03-20T07:48:48.370Z,29.27
2023-03-20T07:51:27.279Z,27.85
2023-03-20T07:54:03.404Z,27.17
2023-03-20T07:56:33.435Z,22.00
2023-03-20T07:59:10.312Z,28.23
2023-03-20T08:01:47.289Z,27.13
2023-03-20T08:04:19.798Z,30.48
2023-03-20T08:06:59.337Z,27.88
2023-03-20T08:09:29.867Z,23.35
2023-03-20T08:12:06.337Z,25.95
2023-03-20T08:14:38.807Z,19.55
2023-03-20T08:17:18.718Z,22.67
2023-03-20T08:19:56.318Z,22.48
2023-03-20T08:22:28.973Z,25.88
2023-03-20T08:25:05.526Z,30.15
2023-03-20T08:27:35.628Z,23.33
2023-03-20T08:30:12.387Z,24.65
2023-03-20T08:32:42.564Z,24.83
2023-03-20T08:35:45.096Z,24.58
2023-03-20T08:38:16.046Z,32.05
2023-03-20T08:40:52.393Z,25.60
2023-03-20T08:43:22.450Z,25.67
2023-03-20T08:45:59.449Z,28.73
2023-03-20T08:48:36.358Z,22.63
2023-03-20T08:51:07.502Z,19.55
2023-03-20T08:53:46.472Z,27.27
2023-03-20T08:56:23.354Z,23.17
2023-03-20T08:58:56.199Z,21.38
2023-03-20T09:01:48.359Z,20.77
2023-03-20T09:04:19.372Z,29.25
2023-03-20T09:06:56.446Z,27.35
2023-03-20T09:09:29.743Z,22.88
2023-03-20T09:12:07.436Z,26.20
2023-03-20T09:14:38.423Z,24.75
2023-03-20T09:17:15.374Z,19.08
2023-03-20T09:19:45.940Z,20.27
2023-03-20T09:22:24.517Z,20.90
2023-03-20T09:24:57.336Z,18.00
2023-03-20T09:27:33.442Z,18.80
2023-03-20T09:30:03.483Z,22.55
2023-03-20T09:32:40.606Z,22.15
2023-03-20T09:35:11.603Z,20.70
2023-03-20T09:37:48.506Z,20.83
2023-03-20T09:40:30.134Z,21.20
2023-03-20T09:43:16.452Z,22.27
2023-03-20T09:45:59.188Z,21.70
2023-03-20T09:48:44.520Z,20.65
2023-03-20T09:51:25.381Z,22.42
2023-03-20T09:54:06.435Z,18.92
2023-03-20T09:56:39.820Z,22.45
2023-03-20T09:59:17.433Z,21.05
2023-03-20T10:01:59.609Z,21.65
2023-03-20T10:04:32.662Z,21.00
2023-03-20T10:07:09.450Z,20.38
2023-03-20T10:09:46.506Z,26.13
2023-03-20T10:12:56.449Z,26.48
2023-03-20T10:15:47.493Z,20.33
2023-03-20T10:18:25.844Z,27.90
2023-03-20T10:21:09.449Z,18.80
2023-03-20T10:23:44.852Z,19.42
2023-03-20T10:26:25.463Z,28.85
2023-03-20T10:29:02.179Z,25.48
2023-03-20T10:31:52.579Z,25.67
2023-03-20T10:34:39.130Z,23.55
2023-03-20T10:37:34.488Z,27.48
2023-03-20T10:40:26.951Z,27.17
2023-03-20T10:43:08.523Z,25.63
2023-03-20T10:45:45.979Z,25.40
2023-03-20T10:48:33.549Z,23.85
2023-03-20T10:51:07.037Z,24.40
2023-03-20T10:53:53.648Z,30.45
2023-03-20T10:56:33.755Z,27.73
2023-03-20T10:59:16.532Z,24.38
2023-03-20T11:01:49.090Z,31.65
2023-03-20T11:04:25.625Z,28.75
2023-03-20T11:07:02.838Z,26.13
2023-03-20T11:09:39.588Z,26.60
2023-03-20T11:12:19.617Z,32.75
2023-03-20T11:14:56.643Z,26.05
2023-03-20T11:17:32.370Z,29.45
2023-03-20T11:20:14.611Z,31.45
2023-03-20T11:22:44.687Z,26.88
2023-03-20T11:25:35.553Z,31.80
2023-03-20T11:28:34.595Z,32.90
2023-03-20T11:31:09.113Z,32.83
2023-03-20T11:33:54.580Z,36.00
2023-03-20T11:36:30.172Z,31.33
2023-03-20T11:39:15.622Z,30.98
2023-03-20T11:41:50.789Z,30.17
2023-03-20T11:44:35.591Z,32.75
2023-03-20T11:47:08.501Z,29.73
2023-03-20T11:49:58.572Z,29.80
2023-03-20T11:52:39.562Z,31.90
2023-03-20T11:55:35.643Z,31.38
2023-03-20T11:58:09.473Z,30.60
2023-03-20T12:00:48.678Z,27.95
2023-03-20T12:03:51.652Z,28.85
2023-03-20T12:06:27.883Z,30.83
2023-03-20T12:09:09.595Z,34.35
2023-03-20T12:11:53.511Z,30.05
2023-03-20T12:14:43.627Z,29.48
2023-03-20T12:17:44.206Z,34.00
2023-03-20T12:20:39.697Z,32.53
2023-03-20T12:23:16.832Z,34.63
2023-03-20T12:26:03.651Z,37.90
2023-03-20T12:28:42.359Z,29.05
2023-03-20T12:31:33.701Z,37.90
2023-03-20T12:34:11.557Z,31.57
2023-03-20T12:36:53.683Z,33.42
2023-03-20T12:42:22.672Z,31.20
2023-03-20T12:44:59.024Z,31.10
2023-03-20T12:47:59.678Z,30.58
2023-03-20T12:50:35.316Z,32.33
2023-03-20T12:53:33.664Z,36.65
2023-03-20T12:56:29.654Z,37.08
2023-03-20T12:59:06.441Z,35.08
2023-03-20T13:01:54.741Z,34.88
2023-03-20T13:04:50.167Z,37.20
2023-03-20T13:07:29.679Z,42.58
2023-03-20T13:10:15.423Z,40.42
2023-03-20T13:13:11.740Z,41.63
2023-03-20T13:16:07.778Z,41.28
2023-03-20T13:18:55.017Z,39.75
2023-03-20T13:21:42.822Z,34.20
2023-03-20T13:24:29.217Z,39.03
2023-03-20T13:27:14.793Z,36.92
2023-03-20T13:29:55.432Z,33.47
2023-03-20T13:32:55.750Z,36.92
2023-03-20T13:35:42.773Z,33.78
2023-03-20T13:38:26.777Z,39.22
2023-03-20T13:41:09.777Z,33.30
2023-03-20T13:43:44.228Z,33.90
2023-03-20T13:46:28.822Z,36.03
2023-03-20T13:49:15.844Z,37.72
2023-03-20T13:52:01.856Z,32.55
2023-03-20T13:54:54.357Z,34.22
2023-03-20T13:57:57.809Z,39.08
2023-03-20T14:00:34.863Z,39.63
